createdAt,value
2023-02-19T00:01:21.766Z,49.93
2023-02-19T00:03:51.284Z,49.93
2023-02-19T00:06:19.292Z,50.09
2023-02-19T00:08:46.275Z,49.91
2023-02-19T00:11:18.538Z,50.33
2023-02-19T00:13:47.396Z,50.07
2023-02-19T00:16:37.246Z,49.75
2023-02-19T00:19:11.710Z,50.19
2023-02-19T00:21:38.265Z,50.12
2023-02-19T00:24:06.846Z,50.06
2023-02-19T00:26:34.086Z,50.20
2023-02-19T00:29:01.561Z,50.38
2023-02-19T00:31:33.005Z,50.31
2023-02-19T00:34:06.002Z,50.36
2023-02-19T00:36:34.263Z,50.71
2023-02-19T00:39:00.980Z,50.56
2023-02-19T00:41:27.864Z,50.77
2023-02-19T00:44:13.762Z,50.35
2023-02-19T00:46:46.504Z,50.48
2023-02-19T00:49:22.216Z,50.40
2023-02-19T00:51:51.089Z,50.93
2023-02-19T00:54:18.094Z,50.63
2023-02-19T00:56:45.584Z,50.76
2023-02-19T00:59:12.393Z,50.33
2023-02-19T01:01:39.076Z,50.59
2023-02-19T01:04:06.873Z,50.70
2023-02-19T01:06:33.789Z,50.85
2023-02-19T01:09:00.262Z,51.01
2023-02-19T01:11:27.030Z,50.94
2023-02-19T01:13:57.709Z,50.97
2023-02-19T01:16:24.534Z,51.12
2023-02-19T01:18:51.548Z,50.65
2023-02-19T01:21:21.575Z,50.60
2023-02-19T01:23:49.320Z,50.86
2023-02-19T01:26:22.242Z,50.94
2023-02-19T01:28:49.444Z,50.92
2023-02-19T01:31:22.633Z,50.38
2023-02-19T01:33:55.222Z,50.79
2023-02-19T01:36:22.731Z,51.09
2023-02-19T01:38:49.469Z,51.13
2023-02-19T01:41:18.662Z,51.16
2023-02-19T01:44:02.638Z,50.87
2023-02-19T01:46:36.918Z,51.31
2023-02-19T01:49:11.882Z,50.81
2023-02-19T01:51:44.231Z,50.99
2023-02-19T01:54:15.916Z,51.02
2023-02-19T01:56:45.794Z,51.15
2023-02-19T01:59:13.124Z,51.47
2023-02-19T02:01:41.114Z,51.44
2023-02-19T02:04:10.035Z,51.41
2023-02-19T02:06:44.669Z,50.82
2023-02-19T02:09:12.048Z,51.47
2023-02-19T02:11:42.450Z,51.32
2023-02-19T02:14:08.957Z,51.37
2023-02-19T02:17:03.734Z,51.30
2023-02-19T02:20:07.706Z,51.25
2023-02-19T02:22:54.473Z,51.19
2023-02-19T02:25:55.493Z,51.50
2023-02-19T02:29:05.999Z,51.53
2023-02-19T02:31:39.653Z,51.58
2023-02-19T02:34:14.749Z,51.93
2023-02-19T02:36:49.812Z,52.13
2023-02-19T02:39:20.747Z,52.72
2023-02-19T02:41:55.077Z,52.67
2023-02-19T02:44:21.919Z,52.96
2023-02-19T02:46:48.462Z,53.25
2023-02-19T02:49:24.042Z,53.53
2023-02-19T02:51:54.542Z,53.83
2023-02-19T02:54:31.243Z,54.13
2023-02-19T02:57:00.307Z,54.47
2023-02-19T02:59:33.940Z,55.10
2023-02-19T03:02:31.264Z,55.38
2023-02-19T03:05:06.425Z,55.85
2023-02-19T03:07:42.267Z,56.90
2023-02-19T03:10:13.492Z,56.94
2023-02-19T03:12:43.556Z,57.57
2023-02-19T03:15:13.730Z,58.05
2023-02-19T03:17:47.635Z,58.93
2023-02-19T03:20:19.889Z,59.08
2023-02-19T03:22:46.894Z,59.47
2023-02-19T03:25:21.725Z,60.63
2023-02-19T03:27:49.726Z,61.79
2023-02-19T03:30:21.522Z,62.42
2023-02-19T03:32:51.261Z,63.10
2023-02-19T03:35:25.617Z,65.25
2023-02-19T03:38:11.584Z,64.58
2023-02-19T03:40:54.379Z,64.47
2023-02-19T03:43:27.503Z,65.00
2023-02-19T03:45:59.988Z,65.58
2023-02-19T03:48:33.657Z,65.96
2023-02-19T03:51:32.289Z,66.13
2023-02-19T03:54:10.767Z,67.08
2023-02-19T03:56:46.512Z,68.23
2023-02-19T03:59:16.820Z,68.50
2023-02-19T04:01:52.074Z,69.63
2023-02-19T04:04:27.628Z,70.93
2023-02-19T04:06:56.433Z,71.03
2023-02-19T04:09:28.533Z,70.85
2023-02-19T04:12:02.899Z,71.31
2023-02-19T04:14:39.999Z,70.87
2023-02-19T04:17:11.695Z,71.59
2023-02-19T04:19:42.546Z,71.86
2023-02-19T04:22:10.353Z,72.35
2023-02-19T04:24:46.700Z,72.85
2023-02-19T04:27:13.594Z,72.43
2023-02-19T04:29:40.528Z,72.69
2023-02-19T04:32:09.627Z,72.63
2023-02-19T04:34:36.262Z,72.93
2023-02-19T04:37:03.102Z,72.95
2023-02-19T04:39:29.728Z,72.77
2023-02-19T04:41:56.224Z,72.79
2023-02-19T04:44:22.934Z,73.19
2023-02-19T04:46:49.592Z,72.91
2023-02-19T04:49:16.174Z,72.95
2023-02-19T04:51:42.855Z,73.00
2023-02-19T04:54:09.525Z,73.05
2023-02-19T04:56:36.042Z,72.97
2023-02-19T04:59:02.682Z,73.10
2023-02-19T05:01:29.348Z,73.08
2023-02-19T05:03:56.069Z,73.36
2023-02-19T05:06:22.688Z,73.32
2023-02-19T05:08:49.344Z,73.30
2023-02-19T05:11:15.939Z,73.05
2023-02-19T05:13:42.647Z,72.90
2023-02-19T05:16:14.303Z,72.81
2023-02-19T05:18:41.287Z,72.88
2023-02-19T05:21:08.515Z,72.74
2023-02-19T05:23:35.370Z,72.74
2023-02-19T05:26:12.368Z,71.68
2023-02-19T05:28:39.116Z,72.74
2023-02-19T05:31:08.662Z,72.33
2023-02-19T05:33:35.577Z,72.03
2023-02-19T05:36:07.150Z,72.05
2023-02-19T05:38:34.042Z,72.35
2023-02-19T05:41:12.102Z,71.56
2023-02-19T05:43:43.458Z,71.23
2023-02-19T05:46:12.090Z,72.21
2023-02-19T05:48:39.142Z,72.02
2023-02-19T05:51:08.670Z,71.84
2023-02-19T05:53:36.149Z,71.89
2023-02-19T05:56:03.561Z,71.52
2023-02-19T05:58:30.374Z,71.60
2023-02-19T06:00:57.186Z,71.53
2023-02-19T06:03:23.872Z,71.64
2023-02-19T06:05:50.561Z,71.08
2023-02-19T06:08:17.200Z,71.52
2023-02-19T06:10:44.073Z,71.49
2023-02-19T06:13:10.748Z,71.38
2023-02-19T06:15:38.082Z,71.52
2023-02-19T06:18:04.829Z,70.68
2023-02-19T06:20:31.531Z,71.11
2023-02-19T06:22:58.074Z,71.08
2023-02-19T06:25:24.606Z,70.88
2023-02-19T06:27:51.117Z,71.00
2023-02-19T06:30:17.859Z,71.00
2023-02-19T06:32:44.385Z,70.80
2023-02-19T06:35:11.129Z,69.64
2023-02-19T06:37:37.693Z,70.46
2023-02-19T06:40:04.742Z,70.27
2023-02-19T06:42:32.457Z,70.29
2023-02-19T06:44:59.029Z,70.50
2023-02-19T06:47:25.624Z,70.07
2023-02-19T06:49:52.110Z,69.12
2023-02-19T06:52:18.773Z,69.46
2023-02-19T06:54:45.356Z,69.75
2023-02-19T06:57:11.833Z,69.90
2023-02-19T06:59:38.462Z,69.75
2023-02-19T07:02:05.142Z,69.62
2023-02-19T07:04:31.809Z,69.69
2023-02-19T07:06:58.494Z,69.18
2023-02-19T07:09:25.005Z,69.57
2023-02-19T07:11:51.737Z,69.68
2023-02-19T07:14:18.291Z,68.98
2023-02-19T07:16:45.085Z,69.15
2023-02-19T07:19:12.121Z,69.22
2023-02-19T07:21:38.707Z,69.07
2023-02-19T07:24:05.571Z,69.43
2023-02-19T07:26:32.436Z,69.00
2023-02-19T07:28:58.922Z,68.66
2023-02-19T07:31:25.723Z,69.12
2023-02-19T07:33:53.144Z,69.50
2023-02-19T07:36:21.998Z,69.16
2023-02-19T07:38:53.860Z,67.94
2023-02-19T07:41:20.418Z,68.95
2023-02-19T07:43:47.541Z,68.10
2023-02-19T07:46:14.448Z,68.68
2023-02-19T07:48:42.813Z,68.46
2023-02-19T07:51:13.194Z,68.26
2023-02-19T07:53:39.956Z,69.38
2023-02-19T07:56:08.013Z,68.81
2023-02-19T07:58:34.459Z,67.20
2023-02-19T08:01:14.444Z,68.61
2023-02-19T08:03:41.671Z,69.37
2023-02-19T08:06:09.089Z,68.92
2023-02-19T08:08:35.573Z,69.22
2023-02-19T08:11:03.730Z,69.01
2023-02-19T08:13:30.727Z,67.03
2023-02-19T08:16:16.967Z,67.54
2023-02-19T08:18:48.359Z,68.52
2023-02-19T08:21:16.073Z,68.85
2023-02-19T08:23:42.802Z,68.52
2023-02-19T08:26:09.321Z,68.23
2023-02-19T08:28:36.037Z,67.32
2023-02-19T08:31:05.256Z,67.70
2023-02-19T08:33:32.115Z,67.67
2023-02-19T08:36:02.486Z,67.03
2023-02-19T08:38:29.013Z,67.50
2023-02-19T08:40:55.884Z,67.96
2023-02-19T08:43:22.393Z,66.92
2023-02-19T08:45:48.940Z,66.79
2023-02-19T08:48:15.492Z,67.36
2023-02-19T08:50:42.042Z,67.73
2023-02-19T08:53:08.871Z,67.47
2023-02-19T08:55:37.681Z,66.78
2023-02-19T08:58:04.387Z,66.51
2023-02-19T09:00:31.022Z,66.41
2023-02-19T09:02:58.370Z,66.89
2023-02-19T09:05:24.981Z,66.58
2023-02-19T09:07:51.541Z,66.25
2023-02-19T09:10:18.230Z,66.21
2023-02-19T09:12:44.997Z,65.81
2023-02-19T09:15:11.581Z,65.75
2023-02-19T09:17:38.066Z,65.81
2023-02-19T09:20:04.849Z,63.58
2023-02-19T09:22:31.379Z,65.30
2023-02-19T09:24:58.000Z,65.05
2023-02-19T09:27:24.536Z,65.50
2023-02-19T09:29:51.196Z,64.30
2023-02-19T09:32:19.205Z,64.59
2023-02-19T09:34:46.013Z,62.51
2023-02-19T09:37:12.644Z,65.20
2023-02-19T09:39:39.110Z,65.84
2023-02-19T09:42:24.158Z,64.54
2023-02-19T09:44:54.368Z,65.08
2023-02-19T09:47:27.608Z,63.75
2023-02-19T09:49:59.470Z,62.72
2023-02-19T09:52:32.687Z,63.38
2023-02-19T09:55:03.322Z,62.29
2023-02-19T09:57:33.333Z,59.13
2023-02-19T10:00:09.672Z,59.78
2023-02-19T10:02:37.377Z,60.29
2023-02-19T10:05:12.608Z,59.31
2023-02-19T10:07:43.987Z,56.34
2023-02-19T10:10:13.457Z,58.90
2023-02-19T10:12:45.983Z,59.30
2023-02-19T10:15:37.747Z,57.37
2023-02-19T10:18:05.313Z,57.22
2023-02-19T10:20:32.278Z,57.81
2023-02-19T10:23:07.672Z,57.93
2023-02-19T10:25:35.254Z,57.49
2023-02-19T10:28:02.711Z,58.53
2023-02-19T10:30:35.584Z,57.67
2023-02-19T10:33:12.121Z,57.75
2023-02-19T10:35:55.527Z,56.62
2023-02-19T10:38:31.317Z,57.56
2023-02-19T10:41:18.900Z,57.35
2023-02-19T10:44:09.725Z,57.13
2023-02-19T10:46:43.290Z,57.26
2023-02-19T10:49:27.638Z,55.43
2023-02-19T10:51:57.189Z,53.49
2023-02-19T10:54:29.789Z,54.44
2023-02-19T10:57:16.043Z,50.82
2023-02-19T10:59:54.245Z,51.06
2023-02-19T11:02:21.876Z,52.47
2023-02-19T11:05:09.716Z,54.59
2023-02-19T11:07:37.605Z,53.56
2023-02-19T11:10:06.096Z,52.95
2023-02-19T11:12:34.489Z,52.24
2023-02-19T11:15:21.077Z,51.34
2023-02-19T11:18:03.804Z,50.03
2023-02-19T11:20:30.580Z,53.02
2023-02-19T11:23:01.182Z,53.89
2023-02-19T11:25:28.079Z,52.85
2023-02-19T11:27:57.048Z,52.42
2023-02-19T11:30:45.151Z,49.02
2023-02-19T11:33:17.483Z,52.19
2023-02-19T11:35:44.634Z,51.60
2023-02-19T11:38:13.015Z,50.50
2023-02-19T11:41:10.450Z,51.80
2023-02-19T11:43:46.524Z,51.13
2023-02-19T11:46:18.970Z,49.15
2023-02-19T11:48:51.163Z,49.77
2023-02-19T11:51:44.966Z,48.61
2023-02-19T11:54:28.220Z,49.95
2023-02-19T11:57:35.326Z,51.33
2023-02-19T12:00:26.517Z,49.29
2023-02-19T12:03:17.256Z,52.10
2023-02-19T12:06:04.074Z,55.01
2023-02-19T12:09:00.702Z,52.69
2023-02-19T12:12:00.665Z,53.43
2023-02-19T12:15:05.395Z,53.77
2023-02-19T12:18:09.208Z,53.27
2023-02-19T12:21:16.851Z,53.55
2023-02-19T12:23:52.595Z,52.96
2023-02-19T12:26:29.034Z,54.30
2023-02-19T12:29:05.868Z,55.96
2023-02-19T12:31:52.167Z,54.27
2023-02-19T12:34:47.666Z,54.46
2023-02-19T12:37:27.491Z,55.03
2023-02-19T12:40:32.285Z,53.01
2023-02-19T12:43:21.257Z,54.81
2023-02-19T12:46:09.812Z,54.44
2023-02-19T12:48:46.898Z,54.26
2023-02-19T12:51:21.268Z,56.28
2023-02-19T12:54:16.398Z,55.31
2023-02-19T12:56:52.938Z,51.17
2023-02-19T12:59:31.871Z,52.11
2023-02-19T13:02:17.840Z,50.43
2023-02-19T13:04:50.422Z,50.72
2023-02-19T13:07:31.146Z,51.21
2023-02-19T13:10:24.268Z,50.23
2023-02-19T13:12:53.059Z,51.46
2023-02-19T13:15:34.269Z,52.16
2023-02-19T13:18:05.364Z,49.04
2023-02-19T13:20:39.179Z,50.16
2023-02-19T13:23:16.580Z,49.36
2023-02-19T13:26:13.100Z,47.41
2023-02-19T13:28:55.000Z,46.74
2023-02-19T13:31:39.819Z,48.90
2023-02-19T13:34:32.946Z,48.82
2023-02-19T13:37:00.245Z,49.39
2023-02-19T13:39:28.497Z,48.36
2023-02-19T13:41:58.919Z,49.73
2023-02-19T13:44:32.587Z,47.46
2023-02-19T13:46:59.696Z,50.67
2023-02-19T13:49:28.848Z,50.71
2023-02-19T13:51:57.080Z,51.23
2023-02-19T13:54:49.912Z,50.10
2023-02-19T13:57:27.417Z,46.17
2023-02-19T13:59:58.239Z,49.10
2023-02-19T14:02:29.964Z,48.54
2023-02-19T14:04:59.420Z,49.04
2023-02-19T14:07:31.609Z,49.00
2023-02-19T14:09:58.432Z,50.20
2023-02-19T14:12:34.431Z,49.56
2023-02-19T14:15:40.611Z,50.99
2023-02-19T14:18:42.359Z,50.50
2023-02-19T14:21:39.447Z,50.29
2023-02-19T14:24:12.347Z,50.07
2023-02-19T14:26:40.545Z,50.90
2023-02-19T14:29:08.447Z,48.65
2023-02-19T14:31:38.297Z,50.14
2023-02-19T14:34:19.212Z,50.68
2023-02-19T14:36:50.384Z,50.47
2023-02-19T14:39:22.619Z,51.71
2023-02-19T14:41:56.445Z,51.75
2023-02-19T14:44:27.679Z,52.90
2023-02-19T14:46:59.250Z,52.98
2023-02-19T14:49:44.118Z,52.64
2023-02-19T14:52:41.253Z,52.70
2023-02-19T14:55:12.944Z,53.30
2023-02-19T14:57:43.747Z,52.62
2023-02-19T15:00:37.935Z,52.49
2023-02-19T15:03:05.403Z,54.16
2023-02-19T15:05:35.123Z,53.89
2023-02-19T15:08:06.302Z,53.51
2023-02-19T15:10:35.038Z,54.04
2023-02-19T15:13:05.644Z,53.17
2023-02-19T15:15:38.867Z,53.78
2023-02-19T15:18:05.900Z,53.96
2023-02-19T15:20:35.921Z,54.46
2023-02-19T15:23:05.726Z,53.42
2023-02-19T15:25:34.930Z,53.00
2023-02-19T15:28:25.804Z,52.92
2023-02-19T15:30:58.473Z,53.94
2023-02-19T15:33:27.582Z,53.06
2023-02-19T15:35:58.112Z,53.46
2023-02-19T15:38:25.109Z,53.97
2023-02-19T15:40:52.763Z,54.06
2023-02-19T15:43:38.329Z,53.04
2023-02-19T15:46:12.626Z,51.77
2023-02-19T15:48:56.078Z,52.35
2023-02-19T15:51:30.189Z,51.72
2023-02-19T15:54:03.100Z,53.87
2023-02-19T15:56:35.864Z,52.32
2023-02-19T15:59:18.369Z,51.27
2023-02-19T16:01:45.454Z,52.07
2023-02-19T16:04:17.368Z,50.07
2023-02-19T16:06:57.180Z,50.69
2023-02-19T16:09:30.533Z,52.21
2023-02-19T16:11:59.748Z,52.00
2023-02-19T16:14:29.174Z,52.00
2023-02-19T16:17:12.975Z,52.97
2023-02-19T16:19:50.470Z,51.97
2023-02-19T16:22:24.069Z,51.27
2023-02-19T16:24:55.149Z,51.91
2023-02-19T16:27:40.665Z,52.24
2023-02-19T16:30:25.983Z,53.42
2023-02-19T16:33:21.338Z,53.64
2023-02-19T16:35:49.097Z,54.97
2023-02-19T16:38:20.753Z,54.81
2023-02-19T16:40:50.046Z,54.81
2023-02-19T16:43:41.709Z,53.85
2023-02-19T16:46:12.818Z,54.76
2023-02-19T16:48:39.410Z,56.37
2023-02-19T16:51:07.297Z,55.88
2023-02-19T16:53:33.867Z,55.93
2023-02-19T16:56:00.526Z,56.11
2023-02-19T16:58:27.185Z,56.14
2023-02-19T17:00:53.689Z,56.05
2023-02-19T17:03:24.675Z,54.98
2023-02-19T17:05:52.121Z,56.51
2023-02-19T17:08:51.859Z,55.34
2023-02-19T17:11:18.633Z,56.55
2023-02-19T17:13:45.858Z,56.52
2023-02-19T17:16:20.049Z,55.26
2023-02-19T17:18:46.564Z,55.42
2023-02-19T17:21:15.417Z,56.04
2023-02-19T17:23:42.138Z,56.72
2023-02-19T17:26:28.911Z,54.98
2023-02-19T17:28:59.991Z,55.84
2023-02-19T17:31:26.931Z,57.27
2023-02-19T17:33:53.865Z,57.47
2023-02-19T17:36:27.596Z,56.91
2023-02-19T17:38:54.475Z,57.44
2023-02-19T17:41:21.006Z,58.09
2023-02-19T17:43:47.600Z,58.38
2023-02-19T17:46:23.242Z,57.49
2023-02-19T17:48:50.148Z,58.92
2023-02-19T17:51:16.814Z,59.09
2023-02-19T17:53:43.971Z,59.37
2023-02-19T17:56:15.823Z,58.84
2023-02-19T17:58:42.328Z,59.33
2023-02-19T18:01:08.884Z,59.39
2023-02-19T18:03:35.753Z,59.59
2023-02-19T18:06:02.346Z,59.14
2023-02-19T18:08:28.827Z,59.35
2023-02-19T18:10:55.560Z,58.03
2023-02-19T18:13:22.028Z,57.48
2023-02-19T18:15:48.569Z,58.37
2023-02-19T18:18:15.172Z,57.44
2023-02-19T18:20:41.736Z,57.10
2023-02-19T18:23:08.184Z,57.43
2023-02-19T18:25:34.711Z,57.97
2023-02-19T18:28:01.278Z,56.22
2023-02-19T18:30:28.427Z,57.27
2023-02-19T18:32:55.172Z,57.77
2023-02-19T18:35:21.880Z,58.08
2023-02-19T18:37:52.695Z,54.64
2023-02-19T18:40:23.804Z,55.92
2023-02-19T18:42:50.344Z,57.45
2023-02-19T18:45:17.444Z,57.28
2023-02-19T18:47:47.514Z,56.84
2023-02-19T18:50:14.757Z,56.90
2023-02-19T18:52:41.448Z,57.69
2023-02-19T18:55:09.678Z,57.66
2023-02-19T18:57:36.182Z,55.30
2023-02-19T19:00:03.365Z,57.16
2023-02-19T19:02:42.662Z,57.43
2023-02-19T19:05:17.769Z,56.41
2023-02-19T19:07:44.383Z,58.10
2023-02-19T19:10:10.944Z,57.41
2023-02-19T19:12:37.472Z,57.56
2023-02-19T19:15:04.244Z,57.86
2023-02-19T19:17:30.824Z,56.96
2023-02-19T19:19:57.455Z,56.97
2023-02-19T19:22:23.985Z,57.38
2023-02-19T19:24:50.628Z,57.27
2023-02-19T19:27:20.116Z,54.92
2023-02-19T19:29:46.739Z,56.77
2023-02-19T19:32:14.150Z,56.59
2023-02-19T19:34:41.092Z,56.88
2023-02-19T19:37:07.638Z,56.76
2023-02-19T19:39:34.304Z,56.22
2023-02-19T19:42:00.749Z,57.41
2023-02-19T19:44:27.327Z,57.77
2023-02-19T19:46:53.971Z,57.92
2023-02-19T19:49:22.401Z,58.18
2023-02-19T19:51:49.133Z,58.53
2023-02-19T19:54:15.821Z,58.73
2023-02-19T19:56:44.073Z,58.85
2023-02-19T19:59:14.749Z,58.68
2023-02-19T20:01:48.698Z,54.74
2023-02-19T20:04:15.435Z,58.50
2023-02-19T20:06:41.984Z,59.06
2023-02-19T20:09:08.524Z,58.36
2023-02-19T20:11:35.135Z,58.74
2023-02-19T20:14:01.736Z,59.29
2023-02-19T20:16:28.754Z,59.19
2023-02-19T20:18:55.393Z,59.73
2023-02-19T20:21:21.936Z,59.87
2023-02-19T20:23:48.423Z,59.96
2023-02-19T20:26:24.781Z,58.35
2023-02-19T20:28:51.890Z,60.18
2023-02-19T20:31:18.841Z,60.43
2023-02-19T20:33:45.494Z,60.36
2023-02-19T20:36:12.072Z,59.62
2023-02-19T20:38:38.638Z,60.13
2023-02-19T20:41:06.349Z,59.92
2023-02-19T20:43:32.978Z,59.78
2023-02-19T20:45:59.617Z,60.18
2023-02-19T20:48:26.111Z,59.94
2023-02-19T20:50:52.776Z,60.10
2023-02-19T20:53:19.289Z,60.29
2023-02-19T20:55:45.802Z,60.25
2023-02-19T20:58:12.430Z,59.80
2023-02-19T21:00:39.035Z,60.33
2023-02-19T21:03:05.552Z,60.66
2023-02-19T21:05:32.221Z,60.67
2023-02-19T21:07:58.938Z,60.65
2023-02-19T21:10:25.500Z,60.80
2023-02-19T21:12:52.073Z,60.85
2023-02-19T21:15:18.626Z,60.93
2023-02-19T21:17:45.291Z,61.02
2023-02-19T21:20:12.368Z,60.90
2023-02-19T21:22:38.871Z,60.36
2023-02-19T21:25:05.996Z,60.87
2023-02-19T21:27:32.528Z,60.82
2023-02-19T21:29:59.194Z,61.01
2023-02-19T21:32:25.760Z,60.79
2023-02-19T21:34:52.298Z,60.97
2023-02-19T21:37:18.941Z,61.09
2023-02-19T21:39:45.419Z,60.99
2023-02-19T21:42:12.046Z,61.15
2023-02-19T21:44:38.558Z,61.35
2023-02-19T21:47:05.150Z,61.44
2023-02-19T21:49:31.698Z,61.50
2023-02-19T21:51:58.306Z,61.63
2023-02-19T21:54:25.365Z,61.45
2023-02-19T21:56:53.466Z,61.51
2023-02-19T21:59:21.310Z,59.33
2023-02-19T22:01:48.004Z,62.01
2023-02-19T22:04:17.337Z,61.46
2023-02-19T22:06:44.482Z,61.97
2023-02-19T22:09:11.887Z,61.72
2023-02-19T22:11:38.373Z,61.83
2023-02-19T22:14:05.180Z,61.65
2023-02-19T22:16:31.752Z,61.48
2023-02-19T22:18:59.786Z,60.98
2023-02-19T22:21:30.447Z,59.73
2023-02-19T22:23:57.162Z,61.60
2023-02-19T22:26:35.207Z,60.12
2023-02-19T22:29:02.326Z,58.92
2023-02-19T22:31:28.956Z,61.33
2023-02-19T22:33:56.024Z,61.37
2023-02-19T22:36:25.008Z,61.00
2023-02-19T22:38:52.352Z,61.33
2023-02-19T22:41:20.163Z,60.96
2023-02-19T22:43:47.244Z,60.50
2023-02-19T22:46:16.437Z,61.15
2023-02-19T22:48:52.345Z,60.24
2023-02-19T22:51:21.336Z,61.08
2023-02-19T22:53:53.394Z,60.97
2023-02-19T22:56:21.747Z,60.29
2023-02-19T22:58:48.574Z,59.42
2023-02-19T23:01:15.548Z,58.17
2023-02-19T23:03:53.476Z,57.11
2023-02-19T23:06:24.629Z,58.39
2023-02-19T23:08:52.059Z,59.20
2023-02-19T23:11:26.860Z,58.61
2023-02-19T23:13:53.517Z,60.02
2023-02-19T23:16:20.211Z,59.92
2023-02-19T23:18:46.882Z,60.21
2023-02-19T23:21:13.608Z,60.62
2023-02-19T23:23:44.481Z,59.25
2023-02-19T23:26:12.691Z,60.83
2023-02-19T23:28:40.715Z,61.06
2023-02-19T23:31:07.626Z,60.88
2023-02-19T23:33:34.973Z,61.16
2023-02-19T23:36:01.867Z,60.74
2023-02-19T23:38:28.377Z,61.20
2023-02-19T23:40:55.046Z,61.45
2023-02-19T23:43:21.681Z,61.29
2023-02-19T23:45:48.199Z,60.85
2023-02-19T23:48:14.762Z,61.12
2023-02-19T23:50:41.340Z,61.12
2023-02-19T23:53:07.860Z,61.28
2023-02-19T23:55:34.367Z,61.50
2023-02-19T23:58:00.965Z,60.94
